(°C)
(°C)
NW
NW
NW
NW
NW
WNW
WNW
(كم/سا)
18-27
16-22
15-19
15-19
15-20
14-19
13-21
(مم)
0
0
0
0
0
0
0
(%)
0
0
0
0
0
0
0

مستوى ارتفاع الشمس

/ -17.4°
sun-icon
UV 3
06:12
18:56
قمر الصباح (124°)
17:38
24:00

متر ل53.5°شمال 50.15°شرق (UWWW)

الوقت الشروط درجة الحرارة/
نقطة الندى
رياح مجال رؤية حالة الطقس غيوم الضغط تغيير خام
VFR 9°C / 2°C 330º 10kt >10km - Scattered Clouds 3300ft 1012 No Significant change UWWW 161630Z 33005MPS 9999 SCT033 09/02 Q1012 R33/CLRD60 NOSIG RMK QFE748/0998
VFR 9°C / 2°C 300º 6kt >10km - Scattered Clouds 3300ft 1012 No Significant change UWWW 161600Z 30003MPS 9999 SCT033 09/02 Q1012 R33/CLRD60 NOSIG RMK QFE748/0998
VFR 9°C / 1°C 310º 6kt >10km - Scattered Clouds 3300ft 1011 No Significant change UWWW 161530Z 31003MPS 9999 SCT033 09/01 Q1011 R33/CLRD60 NOSIG RMK QFE748/0997
VFR 8°C / 1°C 320º 8kt >10km - Scattered Clouds 3300ft 1011 No Significant change UWWW 161500Z 32004MPS 9999 SCT033 08/01 Q1011 R33/CLRD60 NOSIG RMK QFE748/0997
VFR 9°C / 1°C 340º 12kt >10km - Scattered Clouds 3300ft 1011 No Significant change UWWW 161430Z 34006MPS 9999 SCT033 09/01 Q1011 R33/CLRD60 NOSIG RMK QFE748/0997
VFR 9°C / 1°C 340º 16kt >10km - Scattered Clouds 3300ft 1011 No Significant change UWWW 161400Z 34008MPS 9999 SCT033 09/01 Q1011 R33/CLRD60 NOSIG RMK QFE747/0997
VFR 11°C / 1°C 320º 14kt >10km - Scattered Clouds 3300ft 1011 No Significant change UWWW 161330Z 32007MPS 9999 SCT033 11/01 Q1011 R33/CLRD60 NOSIG RMK QFE747/0997
VFR 11°C / 2°C 330º 12kt >10km - Scattered Clouds 3300ft 1010 No Significant change UWWW 161300Z 33006MPS 9999 SCT033 11/02 Q1010 R33/CLRD60 NOSIG RMK QFE747/0996
VFR 11°C / 3°C 340º 14kt >10km - Scattered Clouds 3300ft 1010 No Significant change UWWW 161230Z 34007MPS 9999 SCT033 11/03 Q1010 R33/CLRD60 NOSIG RMK QFE747/0996
VFR 12°C / 2°C 340º 14kt >10km - Scattered Clouds 3300ft 1010 No Significant change UWWW 161200Z 34007MPS 9999 SCT033 12/02 Q1010 R33/CLRD60 NOSIG RMK QFE747/0996
VFR 12°C / 2°C 300º variable 260º to 330º 10kt >10km - Scattered Clouds 3300ft 1010 No Significant change UWWW 161130Z 30005MPS 260V330 9999 SCT033 12/02 Q1010 R33/CLRD60 NOSIG RMK QFE747/0996
VFR 12°C / 2°C 320º 12kt >10km - Scattered Clouds 3300ft 1010 No Significant change UWWW 161100Z 32006MPS 9999 SCT033 12/02 Q1010 R33/CLRD60 NOSIG RMK QFE747/0996
VFR 13°C / 1°C 290º variable 260º to 320º 10kt >10km - Few Clouds 3300ft 1010 No Significant change UWWW 161030Z 29005MPS 260V320 9999 FEW033 13/01 Q1010 R33/CLRD60 NOSIG RMK QFE747/0996
VFR 12°C / 1°C 300º variable 260º to 340º 10kt >10km - Scattered Clouds 3300ft 1010 No Significant change UWWW 161000Z 30005MPS 260V340 9999 SCT033 12/01 Q1010 R33/CLRD60 NOSIG RMK QFE747/0996
VFR 12°C / 2°C 300º variable 260º to 330º 10kt >10km - Broken Clouds 3700ft 1010 No Significant change UWWW 160930Z 30005MPS 260V330 9999 BKN037 12/02 Q1010 R33/CLRD60 NOSIG RMK QFE747/0996
VFR 12°C / 2°C 300º variable 270º to 340º 10kt Gust 19kt >10km - Scattered Clouds 3300ft 1010 No Significant change UWWW 160900Z 30005G10MPS 270V340 9999 SCT033 12/02 Q1010 R33/CLRD60 NOSIG RMK QFE747/0996
VFR 12°C / 2°C 310º variable 250º to 340º 12kt >10km - Scattered Clouds 3300ft 1010 No Significant change UWWW 160830Z 31006MPS 250V340 9999 SCT033 12/02 Q1010 R33/CLRD60 NOSIG RMK QFE747/0996
VFR 11°C / 2°C 310º 14kt >10km - Scattered Clouds 3300ft 1010 No Significant change UWWW 160800Z 31007MPS 9999 SCT033 11/02 Q1010 R33/CLRD60 NOSIG RMK QFE747/0996
VFR 11°C / 2°C 310º 12kt >10km - Scattered Clouds 2600ft 1010 No Significant change UWWW 160730Z 31006MPS 9999 SCT026 11/02 Q1010 R33/CLRD60 NOSIG RMK QFE747/0996
VFR 11°C / 3°C 300º variable 280º to 340º 10kt >10km - Scattered Clouds 2600ft 1010 No Significant change UWWW 160700Z 30005MPS 280V340 9999 SCT026 11/03 Q1010 R33/CLRD60 NOSIG RMK QFE746/0995
VFR 11°C / 3°C 280º variable 230º to 310º 8kt >10km - Scattered Clouds 2600ft 1010 No Significant change UWWW 160630Z 28004MPS 230V310 9999 SCT026 11/03 Q1010 R33/CLRD60 NOSIG RMK QFE746/0995
MVFR 11°C / 3°C 290º variable 250º to 320º 12kt >10km - Broken Clouds 2600ft 1009 No Significant change UWWW 160600Z 29006MPS 250V320 9999 BKN026 11/03 Q1009 R33/CLRD60 NOSIG RMK QFE746/0995
VFR 10°C / 3°C 300º 10kt >10km - Clouds and Visibility OK 1010 No Significant change UWWW 160530Z 30005MPS CAVOK 10/03 Q1010 R33/CLRD60 NOSIG RMK QFE746/0995
VFR 9°C / 3°C 300º variable 260º to 320º 8kt >10km - Scattered Clouds 3300ft 1009 No Significant change UWWW 160500Z 30004MPS 260V320 9999 SCT033 09/03 Q1009 R33/CLRD60 NOSIG RMK QFE746/0995

VFR

9°C / 2°C

[أكثر]
رياح 330º 10kt
مجال رؤية >10km
حالة الطقس -
غيوم Scattered Clouds 3300ft
الضغط 1012
تغيير No Significant change
خام UWWW 161630Z 33005MPS 9999 SCT033 09/02 Q1012 R33/CLRD60 NOSIG RMK QFE748/0998

VFR

9°C / 2°C

[أكثر]
رياح 300º 6kt
مجال رؤية >10km
حالة الطقس -
غيوم Scattered Clouds 3300ft
الضغط 1012
تغيير No Significant change
خام UWWW 161600Z 30003MPS 9999 SCT033 09/02 Q1012 R33/CLRD60 NOSIG RMK QFE748/0998

VFR

9°C / 1°C

[أكثر]
رياح 310º 6kt
مجال رؤية >10km
حالة الطقس -
غيوم Scattered Clouds 3300ft
الضغط 1011
تغيير No Significant change
خام UWWW 161530Z 31003MPS 9999 SCT033 09/01 Q1011 R33/CLRD60 NOSIG RMK QFE748/0997

VFR

8°C / 1°C

[أكثر]
رياح 320º 8kt
مجال رؤية >10km
حالة الطقس -
غيوم Scattered Clouds 3300ft
الضغط 1011
تغيير No Significant change
خام UWWW 161500Z 32004MPS 9999 SCT033 08/01 Q1011 R33/CLRD60 NOSIG RMK QFE748/0997

VFR

9°C / 1°C

[أكثر]
رياح 340º 12kt
مجال رؤية >10km
حالة الطقس -
غيوم Scattered Clouds 3300ft
الضغط 1011
تغيير No Significant change
خام UWWW 161430Z 34006MPS 9999 SCT033 09/01 Q1011 R33/CLRD60 NOSIG RMK QFE748/0997

VFR

9°C / 1°C

[أكثر]
رياح 340º 16kt
مجال رؤية >10km
حالة الطقس -
غيوم Scattered Clouds 3300ft
الضغط 1011
تغيير No Significant change
خام UWWW 161400Z 34008MPS 9999 SCT033 09/01 Q1011 R33/CLRD60 NOSIG RMK QFE747/0997

VFR

11°C / 1°C

[أكثر]
رياح 320º 14kt
مجال رؤية >10km
حالة الطقس -
غيوم Scattered Clouds 3300ft
الضغط 1011
تغيير No Significant change
خام UWWW 161330Z 32007MPS 9999 SCT033 11/01 Q1011 R33/CLRD60 NOSIG RMK QFE747/0997

VFR

11°C / 2°C

[أكثر]
رياح 330º 12kt
مجال رؤية >10km
حالة الطقس -
غيوم Scattered Clouds 3300ft
الضغط 1010
تغيير No Significant change
خام UWWW 161300Z 33006MPS 9999 SCT033 11/02 Q1010 R33/CLRD60 NOSIG RMK QFE747/0996

VFR

11°C / 3°C

[أكثر]
رياح 340º 14kt
مجال رؤية >10km
حالة الطقس -
غيوم Scattered Clouds 3300ft
الضغط 1010
تغيير No Significant change
خام UWWW 161230Z 34007MPS 9999 SCT033 11/03 Q1010 R33/CLRD60 NOSIG RMK QFE747/0996

VFR

12°C / 2°C

[أكثر]
رياح 340º 14kt
مجال رؤية >10km
حالة الطقس -
غيوم Scattered Clouds 3300ft
الضغط 1010
تغيير No Significant change
خام UWWW 161200Z 34007MPS 9999 SCT033 12/02 Q1010 R33/CLRD60 NOSIG RMK QFE747/0996

VFR

12°C / 2°C

[أكثر]
رياح 300º variable 260º to 330º 10kt
مجال رؤية >10km
حالة الطقس -
غيوم Scattered Clouds 3300ft
الضغط 1010
تغيير No Significant change
خام UWWW 161130Z 30005MPS 260V330 9999 SCT033 12/02 Q1010 R33/CLRD60 NOSIG RMK QFE747/0996

VFR

12°C / 2°C

[أكثر]
رياح 320º 12kt
مجال رؤية >10km
حالة الطقس -
غيوم Scattered Clouds 3300ft
الضغط 1010
تغيير No Significant change
خام UWWW 161100Z 32006MPS 9999 SCT033 12/02 Q1010 R33/CLRD60 NOSIG RMK QFE747/0996

VFR

13°C / 1°C

[أكثر]
رياح 290º variable 260º to 320º 10kt
مجال رؤية >10km
حالة الطقس -
غيوم Few Clouds 3300ft
الضغط 1010
تغيير No Significant change
خام UWWW 161030Z 29005MPS 260V320 9999 FEW033 13/01 Q1010 R33/CLRD60 NOSIG RMK QFE747/0996

VFR

12°C / 1°C

[أكثر]
رياح 300º variable 260º to 340º 10kt
مجال رؤية >10km
حالة الطقس -
غيوم Scattered Clouds 3300ft
الضغط 1010
تغيير No Significant change
خام UWWW 161000Z 30005MPS 260V340 9999 SCT033 12/01 Q1010 R33/CLRD60 NOSIG RMK QFE747/0996

VFR

12°C / 2°C

[أكثر]
رياح 300º variable 260º to 330º 10kt
مجال رؤية >10km
حالة الطقس -
غيوم Broken Clouds 3700ft
الضغط 1010
تغيير No Significant change
خام UWWW 160930Z 30005MPS 260V330 9999 BKN037 12/02 Q1010 R33/CLRD60 NOSIG RMK QFE747/0996

VFR

12°C / 2°C

[أكثر]
رياح 300º variable 270º to 340º 10kt Gust 19kt
مجال رؤية >10km
حالة الطقس -
غيوم Scattered Clouds 3300ft
الضغط 1010
تغيير No Significant change
خام UWWW 160900Z 30005G10MPS 270V340 9999 SCT033 12/02 Q1010 R33/CLRD60 NOSIG RMK QFE747/0996

VFR

12°C / 2°C

[أكثر]
رياح 310º variable 250º to 340º 12kt
مجال رؤية >10km
حالة الطقس -
غيوم Scattered Clouds 3300ft
الضغط 1010
تغيير No Significant change
خام UWWW 160830Z 31006MPS 250V340 9999 SCT033 12/02 Q1010 R33/CLRD60 NOSIG RMK QFE747/0996

VFR

11°C / 2°C

[أكثر]
رياح 310º 14kt
مجال رؤية >10km
حالة الطقس -
غيوم Scattered Clouds 3300ft
الضغط 1010
تغيير No Significant change
خام UWWW 160800Z 31007MPS 9999 SCT033 11/02 Q1010 R33/CLRD60 NOSIG RMK QFE747/0996

VFR

11°C / 2°C

[أكثر]
رياح 310º 12kt
مجال رؤية >10km
حالة الطقس -
غيوم Scattered Clouds 2600ft
الضغط 1010
تغيير No Significant change
خام UWWW 160730Z 31006MPS 9999 SCT026 11/02 Q1010 R33/CLRD60 NOSIG RMK QFE747/0996

VFR

11°C / 3°C

[أكثر]
رياح 300º variable 280º to 340º 10kt
مجال رؤية >10km
حالة الطقس -
غيوم Scattered Clouds 2600ft
الضغط 1010
تغيير No Significant change
خام UWWW 160700Z 30005MPS 280V340 9999 SCT026 11/03 Q1010 R33/CLRD60 NOSIG RMK QFE746/0995

VFR

11°C / 3°C

[أكثر]
رياح 280º variable 230º to 310º 8kt
مجال رؤية >10km
حالة الطقس -
غيوم Scattered Clouds 2600ft
الضغط 1010
تغيير No Significant change
خام UWWW 160630Z 28004MPS 230V310 9999 SCT026 11/03 Q1010 R33/CLRD60 NOSIG RMK QFE746/0995

MVFR

11°C / 3°C

[أكثر]
رياح 290º variable 250º to 320º 12kt
مجال رؤية >10km
حالة الطقس -
غيوم Broken Clouds 2600ft
الضغط 1009
تغيير No Significant change
خام UWWW 160600Z 29006MPS 250V320 9999 BKN026 11/03 Q1009 R33/CLRD60 NOSIG RMK QFE746/0995

VFR

10°C / 3°C

[أكثر]
رياح 300º 10kt
مجال رؤية >10km
حالة الطقس -
غيوم Clouds and Visibility OK
الضغط 1010
تغيير No Significant change
خام UWWW 160530Z 30005MPS CAVOK 10/03 Q1010 R33/CLRD60 NOSIG RMK QFE746/0995

VFR

9°C / 3°C

[أكثر]
رياح 300º variable 260º to 320º 8kt
مجال رؤية >10km
حالة الطقس -
غيوم Scattered Clouds 3300ft
الضغط 1009
تغيير No Significant change
خام UWWW 160500Z 30004MPS 260V320 9999 SCT033 09/03 Q1009 R33/CLRD60 NOSIG RMK QFE746/0995

انقر ل53.5°شمال 50.15°شرق (UWWW)

From till


Maximum Temperature 11ºC on . Minimum Temperature 5ºC on .
From till Wind 320º 14kt. Gust 25kt. Visibility 10km or more. Broken Clouds 2000ft.
Temporarly from till Light Showers Rain . Broken Clouds 1100ft.

خام: TAF UWWW 161355Z 1615/1715 32007G13MPS 9999 BKN020 TX11/1710Z TN05/1701Z TEMPO 1703/1715 -SHRA BKN011CB

صور الأقمار الصناعية الملتقطة و الأمطار حالياً ل53.5°شمال 50.15°شرق

المؤشر يدل على موقع 53.5°شمال 50.15°شرق. [أكثر]

تجمع صورة الأقمار الصناعية في الوقت الفعلي بين الضوء المرئي أثناء النهار والأشعة تحت الحمراء أثناء الليل. لا تبدو الصورة مظلمة ليلاً، لأن الأشعة تحت الحمراء يمكنها الكشف عن الاختلافات في درجة الحرارة. لسوء الحظ ، يصعب التمييز بين السحب المنخفضة والضباب ودرجات حرارة الأرض ، وبالتالي يمكن أن تكون الصور غير مرئية تقريبًا أثناء الليل. يتم تحديث صور الأقمار الصناعية Meteosat الخاصة بأوروبا في الوقت الفعلي كل 5 دقائق، بينما يتم تحديث صور GOES-16 / GOES-17 (أمريكا الشمالية والجنوبية) و Himawari (آسيا) كل 10 دقائق.

حقوق النسخ 2021 EUMETSAT / meteoblue. / حقوق النسخ 2021 meteoblue

رادار وهطول الأمطار التنبؤ الآني ل53.5°شمال 50.15°شرق

رذاذ
ضوء
معتدل
ثقيل
ثقيل جدا
وابل

مؤشر المكان يشير الى 53.5°شمال 50.15°شرق. تظهر في هذه الرسوم المتحركة هطول الامطار بالرادار للساعة الماضية, و توقعات 1h. رذاذ أو تساقط ثلوج خفيف قد يكون غير مرئي للرادار. كثافة هطول الأمطار مرمزة بالألوان وتتراوح من الأزرق الفاتح إلى البرتقالي.